KEAT/EAT METAR and TAF weather

Enter ICAO airport designator
Station Type Date Time Source
KEAT METAR 2020/06/05 11:55 UTC NOAA

KEAT 051155Z AUTO 31011KT 10SM CLR 12/04 A2980 RMK AO2 SLP086 T01220039 10161 20122 57009 $


Station Type Date Time Source
KEAT Decoded METAR 2020/06/05 11:55 UTC NOAA

WENATCHEE PANGBORN MEMO, WA, United States (KEAT) 47-24N 120-12W 377M
Jun 05, 2020 - 07:55 AM EDT / 2020.06.05 1155 UTC
Wind: from the NW (310 degrees) at 13 MPH (11 KT):0
Visibility: 10 mile(s):0
Sky conditions: clear
Temperature: 54.0 F (12.2 C)
Dew Point: 39.0 F (3.9 C)
Relative Humidity: 56%
Pressure (altimeter): 29.8 in. Hg (1009 hPa)
Pressure tendency: 0.03 inches (0.9 hPa) lower than three hours ago
ob: KEAT 051155Z AUTO 31011KT 10SM CLR 12/04 A2980 RMK AO2 SLP086 T01220039 10161 20122 57009
cycle: 12

Station Type Date Time Source
KEAT TAF 2020/06/05 12:48 UTC NOAA

TAF KEAT 051146Z 0512/0612 32008KT P6SM SCT090 OVC150
FM051800 VRB05KT P6SM OVC090
FM052200 15003KT P6SM OVC100
FM060100 30007KT P6SM -RA OVC050
FM060500 31010KT P6SM OVC070

Example: see airport list